Time;durP1;ratioP1;P1;durP2;ratioP2;P2;SDS_P1;SDS_P2;PMS_P1;PMS_P2;Temp;Humidity;BMP_temperature;BMP_pressure;BME280_temperature;BME280_humidity;BME280_pressure;Samples;Min_cycle;Max_cycle;Signal;HPM_P1;HPM_P2
2023/01/15 00:00:59;;;;;;;359.33;163.77;;;6.70;99.90;;;;;;4755052;30;20316;-83
2023/01/15 00:03:25;;;;;;;360.33;162.90;;;6.30;99.90;;;;;;4770445;30;20329;-83
2023/01/15 00:05:50;;;;;;;344.17;163.40;;;6.50;99.90;;;;;;4770415;30;20769;-83
2023/01/15 00:08:16;;;;;;;338.67;161.37;;;7.10;99.90;;;;;;4770829;30;20063;-83
2023/01/15 00:10:42;;;;;;;346.53;163.27;;;6.00;99.90;;;;;;4770824;30;20059;-82
2023/01/15 00:13:07;;;;;;;345.47;164.00;;;5.40;99.90;;;;;;4770361;30;20983;-82
2023/01/15 00:15:33;;;;;;;345.33;163.23;;;6.80;99.90;;;;;;4770424;30;20047;-82
2023/01/15 00:17:59;;;;;;;335.77;159.63;;;6.50;99.90;;;;;;4770590;30;20460;-82
2023/01/15 00:20:25;;;;;;;340.57;163.03;;;5.20;99.90;;;;;;4754173;30;20040;-83
2023/01/15 00:22:50;;;;;;;343.47;161.67;;;6.60;99.90;;;;;;4770302;30;20051;-83
2023/01/15 00:28:00;;;;;;;327.27;157.43;;;6.00;99.90;;;;;;4747708;30;20116;-83
2023/01/15 00:30:26;;;;;;;350.40;164.33;;;6.40;99.90;;;;;;4770475;30;20297;-81
2023/01/15 00:32:51;;;;;;;332.70;159.60;;;6.70;99.90;;;;;;4767736;30;20040;-82
2023/01/15 00:35:20;;;;;;;313.37;154.47;;;6.00;99.90;;;;;;4770095;30;20075;-83
2023/01/15 00:37:46;;;;;;;308.40;152.43;;;6.00;99.90;;;;;;4767471;30;20048;-83
2023/01/15 00:40:13;;;;;;;308.90;153.30;;;7.00;99.90;;;;;;4769668;30;20320;-83
2023/01/15 00:42:39;;;;;;;303.57;152.23;;;6.10;99.90;;;;;;4770032;30;20048;-83
2023/01/15 00:45:09;;;;;;;295.53;150.83;;;7.10;99.90;;;;;;4770134;30;20308;-83
2023/01/15 00:47:39;;;;;;;298.57;150.37;;;6.00;99.90;;;;;;4769647;30;20410;-83
2023/01/15 00:50:06;;;;;;;288.03;150.63;;;6.70;99.90;;;;;;4769982;30;20344;-83
2023/01/15 00:52:32;;;;;;;288.43;149.73;;;6.00;99.90;;;;;;4764878;30;20651;-82
2023/01/15 00:54:58;;;;;;;278.07;148.67;;;6.20;99.90;;;;;;4769627;30;20321;-82
2023/01/15 00:57:24;;;;;;;259.70;143.77;;;6.20;99.90;;;;;;4769414;30;20036;-83
2023/01/15 00:59:49;;;;;;;260.40;142.40;;;6.00;99.90;;;;;;4769596;30;20553;-83
2023/01/15 01:02:15;;;;;;;267.87;147.17;;;6.10;99.90;;;;;;4769742;30;20058;-83
2023/01/15 01:04:41;;;;;;;266.27;146.17;;;6.10;99.90;;;;;;4769827;30;20044;-83
2023/01/15 01:07:06;;;;;;;259.77;144.33;;;6.50;99.90;;;;;;4769639;30;20051;-83
2023/01/15 01:09:32;;;;;;;268.40;146.73;;;6.70;99.90;;;;;;4769266;30;20063;-83
2023/01/15 01:11:58;;;;;;;266.93;146.43;;;6.10;99.90;;;;;;4769598;30;20048;-83
2023/01/15 01:14:23;;;;;;;257.13;144.33;;;6.00;99.90;;;;;;4753322;30;20064;-83
2023/01/15 01:16:49;;;;;;;255.23;144.00;;;6.90;99.90;;;;;;4753767;30;20058;-83
2023/01/15 01:19:18;;;;;;;264.07;147.57;;;6.50;99.90;;;;;;4769521;30;20080;-83
2023/01/15 01:21:44;;;;;;;253.17;142.70;;;6.90;99.90;;;;;;4769413;30;20081;-83
2023/01/15 01:24:12;;;;;;;251.97;143.83;;;6.00;99.90;;;;;;4769548;30;20393;-83
2023/01/15 01:26:38;;;;;;;243.40;141.63;;;6.70;99.90;;;;;;4769027;30;20321;-83
2023/01/15 01:29:04;;;;;;;243.23;141.83;;;6.00;99.90;;;;;;4769054;30;20306;-82
2023/01/15 01:31:30;;;;;;;253.17;141.23;;;6.60;99.90;;;;;;4769498;30;20497;-83
2023/01/15 01:33:58;;;;;;;234.23;139.03;;;7.20;99.90;;;;;;4745755;30;21618;-83
2023/01/15 01:36:30;;;;;;;244.00;141.23;;;6.80;99.90;;;;;;4769567;30;20317;-83
2023/01/15 01:38:56;;;;;;;246.27;142.27;;;6.30;99.90;;;;;;4753090;30;20389;-83
2023/01/15 01:41:22;;;;;;;243.63;141.23;;;6.50;99.90;;;;;;4752801;30;20301;-83
2023/01/15 01:43:59;;;;;;;245.63;142.20;;;6.60;99.90;;;;;;4769164;30;20301;-83
2023/01/15 01:46:27;;;;;;;243.23;141.23;;;6.00;99.90;;;;;;4763463;30;20778;-83
2023/01/15 01:48:58;;;;;;;239.07;140.00;;;6.30;99.90;;;;;;4768377;30;20305;-83
2023/01/15 01:51:27;;;;;;;233.77;139.60;;;6.20;99.90;;;;;;4762651;30;20301;-83
2023/01/15 01:53:54;;;;;;;231.87;140.33;;;6.40;99.90;;;;;;4769474;30;20702;-82
2023/01/15 01:56:22;;;;;;;234.80;139.27;;;6.00;99.90;;;;;;4752901;30;20639;-82
2023/01/15 01:58:52;;;;;;;237.53;140.50;;;6.30;99.90;;;;;;4768778;30;20312;-82
2023/01/15 02:01:19;;;;;;;238.13;141.23;;;6.90;99.90;;;;;;4753110;30;20396;-82
2023/01/15 02:03:45;;;;;;;218.80;136.50;;;6.00;99.90;;;;;;4753861;30;20354;-82
2023/01/15 02:06:13;;;;;;;200.27;131.33;;;6.90;99.90;;;;;;4769924;30;20289;-82
2023/01/15 02:08:38;;;;;;;207.23;133.93;;;6.70;99.90;;;;;;4769256;30;20060;-82
2023/01/15 02:11:06;;;;;;;229.07;138.77;;;6.50;99.90;;;;;;4769397;30;20430;-82
2023/01/15 02:13:37;;;;;;;240.30;141.30;;;6.80;99.90;;;;;;4768496;30;20052;-82
2023/01/15 02:16:49;;;;;;;237.90;139.63;;;6.80;99.90;;;;;;4752802;30;20321;-82
2023/01/15 02:19:54;;;;;;;238.03;139.80;;;6.00;99.90;;;;;;4730625;30;20397;-82
2023/01/15 02:22:25;;;;;;;238.77;140.63;;;6.00;99.90;;;;;;4728117;30;20306;-82
2023/01/15 02:25:03;;;;;;;239.70;140.50;;;6.00;99.90;;;;;;4730785;30;20327;-82
2023/01/15 02:27:29;;;;;;;244.20;141.57;;;6.00;99.90;;;;;;4731073;30;20500;-82
2023/01/15 02:30:22;;;;;;;241.17;141.03;;;5.90;99.90;;;;;;4730716;30;20797;-82
2023/01/15 02:33:20;;;;;;;244.53;141.97;;;5.90;99.90;;;;;;4730419;30;20832;-82
2023/01/15 02:35:53;;;;;;;245.27;142.83;;;6.10;99.90;;;;;;4729829;30;20365;-82
2023/01/15 02:38:22;;;;;;;245.87;142.23;;;6.10;99.90;;;;;;4730981;30;20389;-82
2023/01/15 02:40:52;;;;;;;244.77;142.50;;;6.40;99.90;;;;;;4730180;30;20484;-83
2023/01/15 02:43:20;;;;;;;241.13;140.87;;;5.80;99.90;;;;;;4730558;30;20661;-82
2023/01/15 02:45:49;;;;;;;234.03;139.87;;;6.40;99.90;;;;;;4730847;30;20310;-82
2023/01/15 02:48:18;;;;;;;237.37;140.63;;;7.10;99.90;;;;;;4731027;30;20295;-82
2023/01/15 02:50:54;;;;;;;223.70;136.87;;;6.10;99.90;;;;;;4730546;30;20299;-82
2023/01/15 02:53:24;;;;;;;225.30;138.53;;;6.10;99.90;;;;;;4730592;30;20364;-82
2023/01/15 02:55:54;;;;;;;230.30;139.07;;;6.90;99.90;;;;;;4736702;30;20322;-83
2023/01/15 02:58:27;;;;;;;243.23;142.33;;;5.90;99.90;;;;;;4768137;30;20819;-82
2023/01/15 03:00:57;;;;;;;224.13;136.47;;;6.40;99.90;;;;;;4770150;30;20314;-82
2023/01/15 03:03:44;;;;;;;237.13;140.53;;;6.90;99.90;;;;;;4755551;30;20702;-82
2023/01/15 03:06:23;;;;;;;236.77;140.33;;;5.90;99.90;;;;;;4755835;30;20305;-82
2023/01/15 03:08:49;;;;;;;244.37;141.17;;;5.90;99.90;;;;;;4765872;30;20660;-82
2023/01/15 03:11:20;;;;;;;229.73;138.67;;;5.90;99.90;;;;;;4771264;30;20404;-83
2023/01/15 03:14:14;;;;;;;233.83;139.43;;;6.60;99.90;;;;;;4765441;30;20051;-82
2023/01/15 03:16:49;;;;;;;230.03;138.93;;;5.90;99.90;;;;;;4771431;30;20307;-82
2023/01/15 03:19:23;;;;;;;196.13;131.23;;;6.10;99.90;;;;;;4771874;30;20289;-82
2023/01/15 03:22:19;;;;;;;190.60;129.40;;;6.50;99.90;;;;;;4764548;30;20051;-82
2023/01/15 03:25:07;;;;;;;198.43;132.32;;;6.00;99.90;;;;;;4771325;29;20739;-82
2023/01/15 03:27:32;;;;;;;188.50;129.17;;;6.00;99.90;;;;;;4755231;30;20077;-82
2023/01/15 03:30:12;;;;;;;171.33;123.93;;;6.50;99.90;;;;;;4748808;30;20425;-82
2023/01/15 03:32:38;;;;;;;166.70;121.53;;;5.90;99.90;;;;;;4770761;30;20371;-82
2023/01/15 03:35:07;;;;;;;5.60;1.02;;;5.90;99.90;;;;;;4771565;30;20048;-82
2023/01/15 03:37:33;;;;;;;3.30;0.55;;;5.80;99.90;;;;;;4755661;30;20116;-82
2023/01/15 03:39:59;;;;;;;8.90;1.20;;;5.80;99.90;;;;;;4770975;30;20043;-82
2023/01/15 03:42:45;;;;;;;6.15;0.55;;;6.00;99.90;;;;;;4755439;30;20073;-81
2023/01/15 03:45:16;;;;;;;;;;;5.70;99.90;;;;;;4770421;30;20051;-82
2023/01/15 03:47:53;;;;;;;6.22;0.80;;;5.70;99.90;;;;;;4771125;30;19926;-82
2023/01/15 03:50:27;;;;;;;7.13;0.82;;;5.70;99.90;;;;;;4765479;30;20048;-82
2023/01/15 03:53:18;;;;;;;2.58;0.60;;;5.70;99.90;;;;;;4771074;30;20098;-82
2023/01/15 03:56:54;;;;;;;199.40;164.57;;;5.80;99.90;;;;;;4771244;29;20091;-82
2023/01/15 03:59:31;;;;;;;6.18;0.55;;;5.70;99.90;;;;;;4676499;30;20173;-82
2023/01/15 04:01:57;;;;;;;10.63;0.80;;;5.60;99.90;;;;;;4664187;30;20062;-82
2023/01/15 04:04:25;;;;;;;8.35;1.15;;;5.70;99.90;;;;;;4664583;30;20125;-82
2023/01/15 04:06:55;;;;;;;8.25;0.73;;;6.40;99.90;;;;;;4649880;30;20067;-82
2023/01/15 04:09:22;;;;;;;13.60;1.08;;;5.70;99.90;;;;;;4663996;30;20150;-82
2023/01/15 04:11:48;;;;;;;3.90;0.73;;;6.90;99.90;;;;;;4663662;30;20073;-82
2023/01/15 04:14:14;;;;;;;6.70;0.90;;;5.80;99.90;;;;;;4670870;30;20058;-82
2023/01/15 04:16:40;;;;;;;6.65;0.70;;;6.50;99.90;;;;;;4668513;30;20060;-82
2023/01/15 04:19:05;;;;;;;5.25;0.65;;;6.30;99.90;;;;;;4672462;30;20062;-82
2023/01/15 04:21:31;;;;;;;2.92;0.50;;;5.70;99.90;;;;;;4664281;30;20117;-82
2023/01/15 04:23:57;;;;;;;7.53;1.08;;;6.50;99.90;;;;;;4664191;30;20058;-82
2023/01/15 04:26:23;;;;;;;7.35;0.65;;;5.60;99.90;;;;;;4649396;30;20058;-82
2023/01/15 04:28:50;;;;;;;9.48;1.35;;;6.70;99.90;;;;;;4656506;30;20150;-82
2023/01/15 04:31:15;;;;;;;11.63;1.15;;;5.50;99.90;;;;;;4663659;30;20577;-82
2023/01/15 04:33:41;;;;;;;6.18;0.93;;;5.60;99.90;;;;;;4706669;30;20132;-83
2023/01/15 04:36:10;;;;;;;3.17;0.60;;;5.60;99.90;;;;;;4751280;30;20059;-82
2023/01/15 04:38:38;;;;;;;8.35;1.10;;;5.60;99.90;;;;;;4763723;30;20101;-82
2023/01/15 04:44:07;;;;;;;4.40;0.63;;;6.10;99.90;;;;;;4765197;30;20086;-82
2023/01/15 04:46:42;;;;;;;4.18;0.50;;;6.50;99.90;;;;;;4770248;30;20043;-82
2023/01/15 04:49:10;;;;;;;12.00;1.02;;;5.60;99.90;;;;;;4769920;30;20059;-82
2023/01/15 04:51:38;;;;;;;7.00;0.93;;;6.00;99.90;;;;;;4754008;30;20383;-82
2023/01/15 04:54:05;;;;;;;5.28;0.77;;;5.50;99.90;;;;;;4769799;30;20048;-82
2023/01/15 04:56:31;;;;;;;6.15;0.70;;;5.50;99.90;;;;;;4769697;30;20051;-82
2023/01/15 04:59:00;;;;;;;8.52;1.85;;;5.70;99.90;;;;;;4769801;30;20060;-82
2023/01/15 05:01:26;;;;;;;4.65;0.57;;;6.30;99.90;;;;;;4769943;30;20089;-82
2023/01/15 05:03:53;;;;;;;6.57;0.70;;;6.50;99.90;;;;;;4770134;30;20105;-82
2023/01/15 05:06:19;;;;;;;4.13;0.50;;;6.40;99.90;;;;;;4769935;30;20062;-82
2023/01/15 05:08:45;;;;;;;5.15;0.70;;;6.60;99.90;;;;;;4753768;30;20052;-82
2023/01/15 05:11:11;;;;;;;6.53;0.82;;;5.50;99.90;;;;;;4769784;30;20047;-82
2023/01/15 05:13:37;;;;;;;15.65;1.00;;;5.90;99.90;;;;;;4769681;30;20050;-83
2023/01/15 05:16:17;;;;;;;7.20;0.70;;;6.60;99.90;;;;;;4769771;30;20051;-82
2023/01/15 05:18:44;;;;;;;3.85;0.50;;;5.50;99.90;;;;;;4769622;30;20052;-82
2023/01/15 05:21:19;;;;;;;9.75;0.90;;;6.00;99.90;;;;;;4769654;30;20055;-82
2023/01/15 05:23:45;;;;;;;7.93;1.10;;;5.80;99.90;;;;;;4752905;30;20096;-82
2023/01/15 05:26:11;;;;;;;7.38;0.93;;;6.20;99.90;;;;;;4753523;30;20047;-82
2023/01/15 05:28:37;;;;;;;6.55;0.50;;;5.30;99.90;;;;;;4769175;30;20036;-82
2023/01/15 05:31:12;;;;;;;5.45;0.93;;;6.20;99.90;;;;;;4769622;30;20051;-82
2023/01/15 05:33:38;;;;;;;7.25;0.75;;;5.30;99.90;;;;;;4753010;30;20055;-83
2023/01/15 05:36:07;;;;;;;9.88;0.80;;;6.20;99.90;;;;;;4753411;30;20059;-83
2023/01/15 05:38:33;;;;;;;12.77;0.90;;;5.40;99.90;;;;;;4769340;30;20043;-82
2023/01/15 05:41:47;;;;;;;7.75;0.98;;;5.40;99.90;;;;;;4769528;30;20047;-82
2023/01/15 05:43:48;;;;;;;12.68;0.82;;;5.40;99.90;;;;;;4768883;30;20059;-82
2023/01/15 05:46:14;;;;;;;5.88;0.70;;;5.70;99.90;;;;;;4769447;30;20439;-82
2023/01/15 05:48:40;;;;;;;3.40;0.70;;;5.40;99.90;;;;;;4769472;30;20397;-82
2023/01/15 05:51:06;;;;;;;5.78;0.50;;;6.30;99.90;;;;;;4769194;30;20035;-82
2023/01/15 05:53:33;;;;;;;9.63;0.70;;;6.20;99.90;;;;;;4769378;30;20047;-83
2023/01/15 05:56:06;;;;;;;3.40;0.50;;;6.40;99.90;;;;;;4769166;30;20043;-82
2023/01/15 05:58:32;;;;;;;10.80;0.93;;;5.30;99.90;;;;;;4768535;30;20107;-82
2023/01/15 06:00:57;;;;;;;3.47;0.50;;;6.00;99.90;;;;;;4768839;30;20055;-82
2023/01/15 06:03:25;;;;;;;3.40;0.75;;;6.00;99.90;;;;;;4769020;30;20067;-82
2023/01/15 06:05:55;;;;;;;9.60;0.85;;;5.50;99.90;;;;;;4768684;30;20043;-82
2023/01/15 06:08:22;;;;;;;3.97;0.60;;;5.20;99.90;;;;;;4769249;30;20051;-82
2023/01/15 06:10:48;;;;;;;7.05;0.80;;;5.50;99.90;;;;;;4769213;30;20047;-82
2023/01/15 06:13:15;;;;;;;10.02;0.65;;;5.40;99.90;;;;;;4768632;30;20066;-83
2023/01/15 06:15:43;;;;;;;4.03;0.70;;;5.90;99.90;;;;;;4753130;30;20047;-82
2023/01/15 06:18:09;;;;;;;7.13;1.20;;;5.30;99.90;;;;;;4751946;30;20051;-82
2023/01/15 06:20:35;;;;;;;3.97;0.45;;;6.10;99.90;;;;;;4768956;30;20498;-82
2023/01/15 06:23:01;;;;;;;8.90;0.80;;;6.00;99.90;;;;;;4768838;30;20601;-82
2023/01/15 06:25:27;;;;;;;8.23;1.20;;;5.80;99.90;;;;;;4769265;30;20122;-82
2023/01/15 06:27:52;;;;;;;8.70;0.63;;;5.20;99.90;;;;;;4768636;30;20125;-82
2023/01/15 06:30:18;;;;;;;6.65;0.60;;;5.80;99.90;;;;;;4768748;30;20071;-81
2023/01/15 06:32:44;;;;;;;5.55;0.98;;;5.20;99.90;;;;;;4768996;30;20109;-83
2023/01/15 06:35:11;;;;;;;5.28;0.73;;;6.00;99.90;;;;;;4769620;30;20420;-82
2023/01/15 06:37:36;;;;;;;8.25;1.00;;;4.20;99.90;;;;;;4772406;30;20044;-82
2023/01/15 06:40:02;;;;;;;4.05;0.57;;;5.10;99.90;;;;;;4756626;30;20046;-82
2023/01/15 06:47:57;;;;;;;784.40;391.83;;;5.40;99.90;;;;;;4772413;30;20059;-82
2023/01/15 06:50:24;;;;;;;518.13;169.03;;;5.60;99.90;;;;;;4771930;30;20301;-82
2023/01/15 06:52:50;;;;;;;310.63;143.67;;;5.50;99.90;;;;;;4755618;30;20313;-82
2023/01/15 06:55:17;;;;;;;346.73;155.50;;;6.10;99.90;;;;;;4755868;30;20329;-81
2023/01/15 06:57:43;;;;;;;352.70;155.03;;;6.10;99.90;;;;;;4771977;30;20301;-82
2023/01/15 07:00:11;;;;;;;364.97;157.57;;;5.20;99.90;;;;;;4771582;30;20828;-82
2023/01/15 07:02:37;;;;;;;473.73;163.13;;;5.20;99.90;;;;;;4756274;30;20290;-82
2023/01/15 07:05:03;;;;;;;449.13;162.03;;;6.20;99.90;;;;;;4772051;30;20293;-81
2023/01/15 07:07:29;;;;;;;458.70;164.87;;;5.10;99.90;;;;;;4771716;30;20321;-82
2023/01/15 07:09:55;;;;;;;302.77;145.70;;;5.20;99.90;;;;;;4771980;30;20305;-81
2023/01/15 07:12:21;;;;;;;295.13;144.13;;;5.90;99.90;;;;;;4771591;30;20443;-82
2023/01/15 07:14:47;;;;;;;327.03;148.03;;;5.20;99.90;;;;;;4771487;30;20056;-82
2023/01/15 07:17:14;;;;;;;304.70;171.07;;;5.80;99.90;;;;;;4771786;30;20376;-82
2023/01/15 07:19:40;;;;;;;282.57;143.00;;;6.30;99.90;;;;;;4771329;30;20126;-82
2023/01/15 07:22:06;;;;;;;289.67;144.27;;;5.80;99.90;;;;;;4771420;30;20791;-82
2023/01/15 07:24:33;;;;;;;304.57;146.47;;;5.20;99.90;;;;;;4771566;30;20736;-82
2023/01/15 07:26:58;;;;;;;328.03;154.60;;;6.20;99.90;;;;;;4771727;30;20309;-83
2023/01/15 07:29:24;;;;;;;353.23;154.70;;;6.00;99.90;;;;;;4771228;30;20359;-82
2023/01/15 07:31:50;;;;;;;301.47;150.10;;;6.30;99.90;;;;;;4771226;30;20063;-82
2023/01/15 07:34:16;;;;;;;267.80;140.27;;;5.20;99.90;;;;;;4772020;30;20046;-82
2023/01/15 07:36:42;;;;;;;335.50;256.20;;;5.20;99.90;;;;;;4770864;30;20325;-83
2023/01/15 07:39:10;;;;;;;268.57;141.43;;;5.60;99.90;;;;;;4771446;30;20051;-82
2023/01/15 07:50:01;;;;;;;271.15;142.50;;;5.30;99.90;;;;;;4765455;30;20308;-83
2023/01/15 07:52:27;;;;;;;270.50;141.63;;;5.30;99.90;;;;;;4770694;30;20048;-83
2023/01/15 07:54:53;;;;;;;278.33;144.37;;;6.40;99.90;;;;;;4755080;30;20819;-83
2023/01/15 07:57:21;;;;;;;280.83;145.17;;;6.00;99.90;;;;;;4770993;30;20079;-83
2023/01/15 07:59:47;;;;;;;286.13;160.83;;;5.60;99.90;;;;;;4770270;30;20468;-84
2023/01/15 08:02:13;;;;;;;324.77;150.97;;;5.90;99.90;;;;;;4771170;30;20294;-82
2023/01/15 08:04:39;;;;;;;435.73;168.40;;;5.30;99.90;;;;;;4770784;30;20300;-83
2023/01/15 08:07:05;;;;;;;444.30;166.03;;;5.60;99.90;;;;;;4770023;30;20039;-85
2023/01/15 08:09:31;;;;;;;435.83;165.20;;;5.40;99.90;;;;;;4770822;30;20313;-82
2023/01/15 08:17:29;;;;;;;423.47;161.73;;;6.30;99.90;;;;;;4770364;30;20266;-82
2023/01/15 08:19:55;;;;;;;424.03;164.20;;;5.30;99.90;;;;;;4754822;30;20392;-82
2023/01/15 08:22:20;;;;;;;428.87;165.23;;;5.30;99.90;;;;;;4770466;30;20309;-82
2023/01/15 08:24:46;;;;;;;461.97;167.43;;;5.80;99.90;;;;;;4770537;30;20051;-82
2023/01/15 08:27:12;;;;;;;456.73;166.63;;;5.70;99.90;;;;;;4770736;30;20043;-82
2023/01/15 08:29:39;;;;;;;445.10;165.47;;;5.60;99.90;;;;;;4769953;30;20051;-81
2023/01/15 08:32:04;;;;;;;444.03;165.73;;;5.70;99.90;;;;;;4770357;30;20297;-82
2023/01/15 08:34:30;;;;;;;430.43;164.97;;;5.40;99.90;;;;;;4770502;30;20637;-81
2023/01/15 08:36:58;;;;;;;406.37;163.00;;;5.50;99.90;;;;;;4770019;30;20044;-82
2023/01/15 08:39:25;;;;;;;402.70;163.97;;;6.30;99.90;;;;;;4770193;30;20087;-82
2023/01/15 08:41:50;;;;;;;392.80;164.73;;;6.50;99.90;;;;;;4754340;30;20655;-81
2023/01/15 08:44:16;;;;;;;404.03;163.70;;;6.00;99.90;;;;;;4754158;30;20305;-82
2023/01/15 08:46:42;;;;;;;404.67;165.13;;;5.40;99.90;;;;;;4770223;30;20044;-82
2023/01/15 08:49:10;;;;;;;431.00;167.17;;;6.10;99.90;;;;;;4769864;30;20059;-82
2023/01/15 08:51:36;;;;;;;388.37;160.87;;;5.50;99.90;;;;;;4768883;30;20513;-82
2023/01/15 08:54:02;;;;;;;367.40;160.27;;;5.60;99.90;;;;;;4770172;30;20262;-81
2023/01/15 08:56:27;;;;;;;355.60;160.27;;;5.70;99.90;;;;;;4770357;30;20496;-82
2023/01/15 08:58:53;;;;;;;344.13;160.80;;;5.70;99.90;;;;;;4769088;30;20059;-82
2023/01/15 09:01:19;;;;;;;333.83;160.90;;;5.70;99.90;;;;;;4753641;30;20086;-82
2023/01/15 09:03:44;;;;;;;329.17;159.57;;;6.40;99.90;;;;;;4770051;30;20096;-82
2023/01/15 09:06:12;;;;;;;323.57;157.03;;;6.40;99.90;;;;;;4769400;30;20419;-82
2023/01/15 09:08:38;;;;;;;308.13;148.00;;;5.90;99.90;;;;;;4753518;30;20087;-82
2023/01/15 09:11:08;;;;;;;248.50;141.97;;;5.50;99.90;;;;;;4753248;30;20373;-82
2023/01/15 09:13:36;;;;;;;217.88;128.27;;;5.40;99.90;;;;;;4770021;30;20298;-82
2023/01/15 09:16:04;;;;;;;277.70;143.93;;;5.30;99.90;;;;;;4769605;30;20051;-82
2023/01/15 09:18:29;;;;;;;298.17;147.53;;;5.30;99.90;;;;;;4769890;30;20377;-82
2023/01/15 09:20:55;;;;;;;342.53;160.47;;;5.20;99.90;;;;;;4769401;30;20451;-82
2023/01/15 09:23:21;;;;;;;330.10;157.97;;;5.70;99.90;;;;;;4752718;30;20035;-82
2023/01/15 09:25:54;;;;;;;331.40;157.73;;;5.40;99.90;;;;;;4769894;30;20063;-82
2023/01/15 09:28:20;;;;;;;325.87;155.53;;;5.20;99.90;;;;;;4753668;30;20503;-82
2023/01/15 09:30:46;;;;;;;299.77;145.50;;;5.20;99.90;;;;;;4753454;30;20337;-82
2023/01/15 09:33:11;;;;;;;300.10;144.43;;;5.90;99.90;;;;;;4752532;30;20054;-82
2023/01/15 09:35:39;;;;;;;304.10;148.10;;;6.00;99.90;;;;;;4768836;30;20427;-82
2023/01/15 09:38:04;;;;;;;298.23;145.83;;;5.20;99.90;;;;;;4752983;30;20043;-82
2023/01/15 09:40:48;;;;;;;290.37;144.10;;;5.70;99.90;;;;;;4753598;30;20310;-82
2023/01/15 09:43:28;;;;;;;280.03;142.90;;;5.30;99.90;;;;;;4768800;30;20882;-82
2023/01/15 09:45:55;;;;;;;277.23;142.17;;;5.40;99.90;;;;;;4753278;30;20305;-82
2023/01/15 09:48:32;;;;;;;267.43;139.57;;;6.10;99.90;;;;;;4768837;30;20317;-82
2023/01/15 09:51:29;;;;;;;274.67;141.33;;;5.60;99.90;;;;;;4769570;30;20359;-81
2023/01/15 09:54:00;;;;;;;;;;;5.40;99.90;;;;;;4749447;30;20309;-81
2023/01/15 09:56:28;;;;;;;263.97;138.97;;;5.50;99.90;;;;;;4768859;30;19944;-82
2023/01/15 09:58:56;;;;;;;250.57;137.10;;;6.40;99.90;;;;;;4768776;30;20312;-82
2023/01/15 10:01:31;;;;;;;248.53;136.87;;;5.80;99.90;;;;;;4769092;30;20353;-82
2023/01/15 10:04:15;;;;;;;198.63;125.15;;;5.70;99.90;;;;;;4768695;30;20358;-82
2023/01/15 10:06:50;;;;;;;166.77;114.72;;;5.80;99.90;;;;;;4762721;30;20086;-82
2023/01/15 10:09:24;;;;;;;;;;;6.70;99.90;;;;;;4768523;30;20421;-82
2023/01/15 10:15:00;;;;;;;153.43;111.40;;;5.90;99.90;;;;;;4762635;30;20166;-82
2023/01/15 10:17:42;;;;;;;133.73;103.80;;;6.00;99.90;;;;;;4753029;30;20059;-82
2023/01/15 10:20:26;;;;;;;139.07;105.15;;;6.00;99.90;;;;;;4769150;30;20081;-82
2023/01/15 10:23:06;;;;;;;185.63;118.70;;;6.10;99.90;;;;;;4738323;30;20043;-82
2023/01/15 10:25:47;;;;;;;186.25;121.18;;;6.60;99.90;;;;;;4752316;30;20067;-82
2023/01/15 10:28:26;;;;;;;142.60;106.93;;;6.10;99.90;;;;;;4768485;30;20066;-82
2023/01/15 10:30:59;;;;;;;145.25;107.07;;;6.20;99.90;;;;;;4763565;30;20056;-82
2023/01/15 10:33:48;;;;;;;131.00;103.45;;;6.20;99.90;;;;;;4752601;30;20494;-82
2023/01/15 10:36:47;;;;;;;118.28;98.15;;;6.30;99.90;;;;;;4768300;30;20047;-82
2023/01/15 10:39:16;;;;;;;;;;;6.80;99.90;;;;;;4693925;30;20503;-84
2023/01/15 10:41:55;;;;;;;249.10;128.63;;;6.30;99.90;;;;;;4695822;30;20515;-83
2023/01/15 10:44:38;;;;;;;;;;;6.20;99.90;;;;;;4697951;30;20121;-82
2023/01/15 10:47:10;;;;;;;;;;;6.20;99.90;;;;;;4697452;30;19986;-85
2023/01/15 10:49:36;;;;;;;;;;;6.20;99.90;;;;;;4668159;30;19939;-83
2023/01/15 10:52:07;;;;;;;;;;;6.50;99.90;;;;;;4697351;30;19950;-83
2023/01/15 10:54:39;;;;;;;;;;;6.30;99.90;;;;;;4696784;30;19990;-84
2023/01/15 10:57:23;;;;;;;;;;;6.50;99.90;;;;;;4697035;30;19982;-81
2023/01/15 10:59:58;;;;;;;;;;;6.60;99.90;;;;;;4696540;30;19927;-84
2023/01/15 11:02:30;;;;;;;;;;;6.60;99.90;;;;;;4697508;30;20405;-83
2023/01/15 11:04:55;;;;;;;;;;;6.70;99.90;;;;;;4694622;30;20039;-82
2023/01/15 11:07:25;;;;;;;;;;;6.70;99.90;;;;;;4700721;30;19979;-83
2023/01/15 11:09:51;;;;;;;;;;;7.20;99.90;;;;;;4698762;30;19971;-83
2023/01/15 11:20:29;;;;;;;;;;;7.30;99.90;;;;;;4732204;30;20307;-83
2023/01/15 11:22:56;;;;;;;;;;;7.30;99.90;;;;;;4723485;30;19933;-82
2023/01/15 11:25:26;;;;;;;;;;;7.90;99.90;;;;;;4754405;30;19922;-83
2023/01/15 11:27:52;;;;;;;;;;;7.00;99.90;;;;;;4754274;30;19933;-83
2023/01/15 11:30:25;;;;;;;;;;;7.30;99.90;;;;;;4738125;30;20403;-82
2023/01/15 11:32:56;;;;;;;;;;;7.30;99.90;;;;;;4737718;30;20403;-84
2023/01/15 11:35:21;;;;;;;;;;;7.20;99.90;;;;;;4738138;30;20016;-83
2023/01/15 11:37:47;;;;;;;;;;;7.30;99.90;;;;;;4753376;30;20020;-83
2023/01/15 11:40:16;;;;;;;;;;;8.20;99.90;;;;;;4737791;30;19933;-83
2023/01/15 11:51:07;;;;;;;;;;;6.60;99.90;;;;;;4747115;30;20452;-82
2023/01/15 11:53:37;;;;;;;;;;;7.10;99.90;;;;;;4747908;30;20381;-83
2023/01/15 11:56:05;;;;;;;;;;;7.60;99.90;;;;;;4747247;30;19934;-82
2023/01/15 11:58:32;;;;;;;;;;;7.00;99.90;;;;;;4753819;30;19932;-81
2023/01/15 12:00:58;;;;;;;;;;;7.30;99.90;;;;;;4770111;30;19930;-83
2023/01/15 12:03:29;;;;;;;;;;;6.90;99.90;;;;;;4771687;30;19976;-82
2023/01/15 12:05:57;;;;;;;;;;;6.80;99.90;;;;;;4770887;30;20335;-81
2023/01/15 12:08:23;;;;;;;;;;;7.20;99.90;;;;;;4771244;30;19948;-81
2023/01/15 12:11:03;;;;;;;;;;;7.20;99.90;;;;;;4771032;30;19946;-81
2023/01/15 12:13:47;;;;;;;;;;;6.60;99.90;;;;;;4755118;30;19945;-82
2023/01/15 12:16:23;;;;;;;;;;;6.20;99.90;;;;;;4771177;30;19975;-83
2023/01/15 12:18:49;;;;;;;;;;;6.50;99.90;;;;;;4771078;30;19947;-82
2023/01/15 12:21:31;;;;;;;;;;;6.10;99.90;;;;;;4771119;30;19947;-83
2023/01/15 12:24:11;;;;;;;;;;;6.00;99.90;;;;;;4769969;30;20357;-82
2023/01/15 12:26:42;;;;;;;;;;;5.80;99.90;;;;;;4755029;30;20006;-82
2023/01/15 12:29:16;;;;;;;;;;;5.80;99.90;;;;;;4771032;30;20079;-84
2023/01/15 12:32:07;;;;;;;;;;;5.60;99.90;;;;;;4771080;30;19953;-82
2023/01/15 12:34:39;;;;;;;;;;;5.60;99.90;;;;;;4766987;30;19964;-82
2023/01/15 12:37:08;;;;;;;;;;;5.60;99.90;;;;;;4754360;30;19976;-83
2023/01/15 12:39:37;;;;;;;;;;;5.70;99.90;;;;;;4755419;30;19954;-83
2023/01/15 12:45:00;;;;;;;;;;;5.50;99.90;;;;;;4770678;30;19969;-84
2023/01/15 12:47:33;;;;;;;;;;;5.30;99.90;;;;;;4764304;30;20007;-83
2023/01/15 12:50:02;;;;;;;;;;;5.50;99.90;;;;;;4770111;30;20327;-83
2023/01/15 12:52:31;;;;;;;;;;;5.40;99.90;;;;;;4770696;30;20023;-83
2023/01/15 12:55:12;;;;;;;;;;;6.50;99.90;;;;;;4770662;30;20005;-86
2023/01/15 12:57:41;;;;;;;;;;;5.30;99.90;;;;;;4765420;30;19971;-83
2023/01/15 13:00:12;;;;;;;;;;;6.40;99.90;;;;;;4783362;29;19992;-83
2023/01/15 13:02:53;;;;;;;;;;;5.50;99.90;;;;;;4770740;30;19975;-83
2023/01/15 13:05:21;;;;;;;;;;;5.40;99.90;;;;;;4770017;30;20011;-84
2023/01/15 13:07:50;;;;;;;;;;;5.50;99.90;;;;;;4753967;30;19965;-84
2023/01/15 13:10:18;;;;;;;;;;;5.40;99.90;;;;;;4770137;30;19977;-83
2023/01/15 13:12:44;;;;;;;;;;;5.40;99.90;;;;;;4770282;30;19969;-82
2023/01/15 13:15:16;;;;;;;;;;;5.40;99.90;;;;;;4769969;30;20000;-83
2023/01/15 13:17:43;;;;;;;;;;;5.40;99.90;;;;;;4770470;30;19968;-82
2023/01/15 13:20:14;;;;;;;;;;;5.80;99.90;;;;;;4769933;30;20310;-83
2023/01/15 13:22:51;;;;;;;;;;;5.40;99.90;;;;;;4770042;30;20036;-83
2023/01/15 13:25:42;;;;;;;;;;;5.40;99.90;;;;;;4770037;30;20347;-83
2023/01/15 13:28:20;;;;;;;;;;;5.40;99.90;;;;;;4769680;30;20050;-83
2023/01/15 13:30:51;;;;;;;;;;;5.40;99.90;;;;;;4748626;30;19971;-83
2023/01/15 13:33:25;;;;;;;;;;;5.20;99.90;;;;;;4769871;30;20323;-83
2023/01/15 13:35:53;;;;;;;;;;;5.40;99.90;;;;;;4753826;30;20006;-82
2023/01/15 13:38:20;;;;;;;;;;;5.70;99.90;;;;;;4769749;30;19988;-82
2023/01/15 13:40:51;;;;;;;;;;;5.30;99.90;;;;;;4770057;30;19974;-85
2023/01/15 13:43:26;;;;;;;;;;;5.30;99.90;;;;;;4769329;30;20026;-83
2023/01/15 13:45:52;;;;;;;;;;;5.30;99.90;;;;;;4753556;30;19983;-83
2023/01/15 13:48:40;;;;;;;;;;;5.30;99.90;;;;;;4753671;30;20370;-83
2023/01/15 13:51:16;;;;;;;;;;;5.20;99.90;;;;;;4753456;30;19978;-82
2023/01/15 13:53:46;;;;;;;;;;;5.60;99.90;;;;;;4760863;30;20326;-85
2023/01/15 13:56:14;;;;;;;;;;;5.30;99.90;;;;;;4769345;30;20047;-84